Terminal Aerodrome Forecast
Issued by NWS

Home | Current Version | Previous Version | Text Only | Print | Product List | Glossary On
Versions: 1 2 3 4 5 6 7 8 9 10 11 12 13 14 15 16 17 18 19 20 21
000
FTUS45 KSLC 281120
TAFSGU
TAF
KSGU 281120Z 2812/2912 03010G16KT P6SM SCT070 SCT120
     FM281600 30010G17KT P6SM SCT070 BKN120
     FM290300 01011KT P6SM SCT070 SCT120=

USA.gov is the U.S. government's official web portal to all federal, state and local government web resources and services.